sensor_id;sensor_type;location;lat;lon;timestamp;pressure;altitude;pressure_sealevel;temperature;humidity
79457;BME280;69494;43.654;3.884;2024-02-15T00:02:02;102078.63;;;5.80;83.78
79457;BME280;69494;43.654;3.884;2024-02-15T00:04:27;102074.34;;;5.80;83.62
79457;BME280;69494;43.654;3.884;2024-02-15T00:06:52;102073.31;;;5.75;83.82
79457;BME280;69494;43.654;3.884;2024-02-15T00:09:18;102078.31;;;5.69;82.88
79457;BME280;69494;43.654;3.884;2024-02-15T00:11:43;102073.13;;;5.67;83.76
79457;BME280;69494;43.654;3.884;2024-02-15T00:14:08;102061.88;;;5.65;83.75
79457;BME280;69494;43.654;3.884;2024-02-15T00:16:34;102067.31;;;5.75;83.86
79457;BME280;69494;43.654;3.884;2024-02-15T00:19:03;102059.78;;;5.82;83.97
79457;BME280;69494;43.654;3.884;2024-02-15T00:21:28;102064.19;;;5.86;83.84
79457;BME280;69494;43.654;3.884;2024-02-15T00:23:54;102060.03;;;5.91;83.86
79457;BME280;69494;43.654;3.884;2024-02-15T00:26:21;102054.19;;;5.96;84.05
79457;BME280;69494;43.654;3.884;2024-02-15T00:28:46;102051.75;;;6.02;84.23
79457;BME280;69494;43.654;3.884;2024-02-15T00:31:13;102047.41;;;5.99;84.34
79457;BME280;69494;43.654;3.884;2024-02-15T00:33:38;102048.84;;;5.91;84.59
79457;BME280;69494;43.654;3.884;2024-02-15T00:36:04;102047.09;;;5.90;84.59
79457;BME280;69494;43.654;3.884;2024-02-15T00:38:31;102053.88;;;5.86;84.49
79457;BME280;69494;43.654;3.884;2024-02-15T00:40:57;102052.97;;;5.84;84.69
79457;BME280;69494;43.654;3.884;2024-02-15T00:43:24;102045.03;;;5.77;85.00
79457;BME280;69494;43.654;3.884;2024-02-15T00:45:49;102044.91;;;5.73;85.26
79457;BME280;69494;43.654;3.884;2024-02-15T00:48:15;102056.09;;;5.72;85.43
79457;BME280;69494;43.654;3.884;2024-02-15T00:50:40;102049.13;;;5.70;85.25
79457;BME280;69494;43.654;3.884;2024-02-15T00:53:05;102047.34;;;5.67;85.17
79457;BME280;69494;43.654;3.884;2024-02-15T00:55:31;102050.56;;;5.60;85.61
79457;BME280;69494;43.654;3.884;2024-02-15T00:57:57;102052.25;;;5.60;85.43
79457;BME280;69494;43.654;3.884;2024-02-15T01:00:22;102055.72;;;5.60;85.90
79457;BME280;69494;43.654;3.884;2024-02-15T01:02:48;102058.31;;;5.60;86.01
79457;BME280;69494;43.654;3.884;2024-02-15T01:05:14;102054.88;;;5.61;85.82
79457;BME280;69494;43.654;3.884;2024-02-15T01:07:43;102050.69;;;5.65;86.04
79457;BME280;69494;43.654;3.884;2024-02-15T01:10:09;102051.66;;;5.68;85.91
79457;BME280;69494;43.654;3.884;2024-02-15T01:12:34;102038.09;;;5.76;85.75
79457;BME280;69494;43.654;3.884;2024-02-15T01:15:00;102049.47;;;5.82;85.61
79457;BME280;69494;43.654;3.884;2024-02-15T01:17:25;102045.97;;;5.80;85.75
79457;BME280;69494;43.654;3.884;2024-02-15T01:19:51;102045.88;;;5.77;85.46
79457;BME280;69494;43.654;3.884;2024-02-15T01:22:18;102040.63;;;5.74;85.58
79457;BME280;69494;43.654;3.884;2024-02-15T01:24:43;102033.50;;;5.64;85.40
79457;BME280;69494;43.654;3.884;2024-02-15T01:27:08;102035.88;;;5.58;86.24
79457;BME280;69494;43.654;3.884;2024-02-15T01:29:35;102028.84;;;5.52;86.05
79457;BME280;69494;43.654;3.884;2024-02-15T01:32:00;102025.34;;;5.50;86.21
79457;BME280;69494;43.654;3.884;2024-02-15T01:34:27;102031.16;;;5.43;86.43
79457;BME280;69494;43.654;3.884;2024-02-15T01:36:53;102034.59;;;5.43;86.88
79457;BME280;69494;43.654;3.884;2024-02-15T01:39:18;102027.78;;;5.45;86.82
79457;BME280;69494;43.654;3.884;2024-02-15T01:41:47;102028.88;;;5.53;87.05
79457;BME280;69494;43.654;3.884;2024-02-15T01:44:13;102024.91;;;5.65;86.64
79457;BME280;69494;43.654;3.884;2024-02-15T01:46:39;102030.31;;;5.74;87.00
79457;BME280;69494;43.654;3.884;2024-02-15T01:49:05;102032.34;;;5.84;86.64
79457;BME280;69494;43.654;3.884;2024-02-15T01:51:33;102033.38;;;5.91;86.88
79457;BME280;69494;43.654;3.884;2024-02-15T01:54:01;102037.00;;;5.96;87.09
79457;BME280;69494;43.654;3.884;2024-02-15T01:56:27;102044.94;;;6.04;87.08
79457;BME280;69494;43.654;3.884;2024-02-15T01:58:53;102030.50;;;6.10;86.99
79457;BME280;69494;43.654;3.884;2024-02-15T02:01:19;102035.09;;;6.22;86.68
79457;BME280;69494;43.654;3.884;2024-02-15T02:03:46;102026.63;;;6.26;86.69
79457;BME280;69494;43.654;3.884;2024-02-15T02:06:12;102022.53;;;6.35;86.66
79457;BME280;69494;43.654;3.884;2024-02-15T02:08:37;102020.13;;;6.41;86.86
79457;BME280;69494;43.654;3.884;2024-02-15T02:11:03;102024.47;;;6.43;86.95
79457;BME280;69494;43.654;3.884;2024-02-15T02:13:29;102031.34;;;6.43;87.17
79457;BME280;69494;43.654;3.884;2024-02-15T02:15:54;102030.53;;;6.45;87.27
79457;BME280;69494;43.654;3.884;2024-02-15T02:18:21;102034.97;;;6.49;87.27
79457;BME280;69494;43.654;3.884;2024-02-15T02:20:49;102028.94;;;6.51;87.13
79457;BME280;69494;43.654;3.884;2024-02-15T02:23:15;102029.84;;;6.53;87.48
79457;BME280;69494;43.654;3.884;2024-02-15T02:25:42;102026.53;;;6.57;87.72
79457;BME280;69494;43.654;3.884;2024-02-15T02:28:09;102018.16;;;6.67;87.75
79457;BME280;69494;43.654;3.884;2024-02-15T02:30:35;102014.03;;;6.74;87.51
79457;BME280;69494;43.654;3.884;2024-02-15T02:33:00;102020.22;;;6.80;87.74
79457;BME280;69494;43.654;3.884;2024-02-15T02:35:27;102009.13;;;6.84;88.12
79457;BME280;69494;43.654;3.884;2024-02-15T02:37:55;102002.31;;;6.88;88.03
79457;BME280;69494;43.654;3.884;2024-02-15T02:40:20;101996.34;;;6.91;88.14
79457;BME280;69494;43.654;3.884;2024-02-15T02:42:52;101991.25;;;6.94;88.42
79457;BME280;69494;43.654;3.884;2024-02-15T02:45:18;101993.88;;;6.95;88.27
79457;BME280;69494;43.654;3.884;2024-02-15T02:47:48;102001.72;;;7.00;88.80
79457;BME280;69494;43.654;3.884;2024-02-15T02:50:13;101994.84;;;7.00;89.38
79457;BME280;69494;43.654;3.884;2024-02-15T02:52:39;102007.97;;;7.10;89.92
79457;BME280;69494;43.654;3.884;2024-02-15T02:55:05;102006.34;;;7.15;89.80
79457;BME280;69494;43.654;3.884;2024-02-15T02:57:37;102008.16;;;7.19;90.06
79457;BME280;69494;43.654;3.884;2024-02-15T03:00:06;101999.66;;;7.23;90.04
79457;BME280;69494;43.654;3.884;2024-02-15T03:02:34;102000.59;;;7.27;90.36
79457;BME280;69494;43.654;3.884;2024-02-15T03:05:02;102004.16;;;7.32;90.79
79457;BME280;69494;43.654;3.884;2024-02-15T03:07:28;101992.09;;;7.32;90.42
79457;BME280;69494;43.654;3.884;2024-02-15T03:09:53;101984.47;;;7.38;90.55
79457;BME280;69494;43.654;3.884;2024-02-15T03:12:19;101976.78;;;7.41;90.20
79457;BME280;69494;43.654;3.884;2024-02-15T03:14:44;101971.66;;;7.43;90.65
79457;BME280;69494;43.654;3.884;2024-02-15T03:17:10;101973.41;;;7.44;90.12
79457;BME280;69494;43.654;3.884;2024-02-15T03:19:36;101976.91;;;7.48;90.48
79457;BME280;69494;43.654;3.884;2024-02-15T03:22:01;101974.34;;;7.49;90.56
79457;BME280;69494;43.654;3.884;2024-02-15T03:24:27;101985.72;;;7.57;91.09
79457;BME280;69494;43.654;3.884;2024-02-15T03:26:52;101988.44;;;7.65;91.57
79457;BME280;69494;43.654;3.884;2024-02-15T03:29:20;101984.22;;;7.69;91.61
79457;BME280;69494;43.654;3.884;2024-02-15T03:31:46;101970.50;;;7.74;91.58
79457;BME280;69494;43.654;3.884;2024-02-15T03:34:13;101975.72;;;7.76;91.64
79457;BME280;69494;43.654;3.884;2024-02-15T03:36:40;101970.63;;;7.79;92.10
79457;BME280;69494;43.654;3.884;2024-02-15T03:39:06;101971.56;;;7.84;92.63
79457;BME280;69494;43.654;3.884;2024-02-15T03:41:33;101976.13;;;7.96;93.20
79457;BME280;69494;43.654;3.884;2024-02-15T03:43:59;101983.31;;;8.12;94.18
79457;BME280;69494;43.654;3.884;2024-02-15T03:46:25;101980.03;;;8.24;95.60
79457;BME280;69494;43.654;3.884;2024-02-15T03:48:51;101973.41;;;8.40;96.07
79457;BME280;69494;43.654;3.884;2024-02-15T03:51:19;101978.88;;;8.55;96.67
79457;BME280;69494;43.654;3.884;2024-02-15T03:53:45;101973.03;;;8.69;97.14
79457;BME280;69494;43.654;3.884;2024-02-15T03:56:11;101971.63;;;8.89;98.60
79457;BME280;69494;43.654;3.884;2024-02-15T03:58:37;101974.31;;;8.97;97.86
79457;BME280;69494;43.654;3.884;2024-02-15T04:01:04;101972.72;;;9.05;98.03
79457;BME280;69494;43.654;3.884;2024-02-15T04:03:31;101973.59;;;9.07;97.34
79457;BME280;69494;43.654;3.884;2024-02-15T04:05:57;101959.84;;;9.13;98.22
79457;BME280;69494;43.654;3.884;2024-02-15T04:08:23;101966.00;;;9.20;97.95
79457;BME280;69494;43.654;3.884;2024-02-15T04:10:49;101967.75;;;9.22;97.28
79457;BME280;69494;43.654;3.884;2024-02-15T04:13:14;101974.69;;;9.25;97.44
79457;BME280;69494;43.654;3.884;2024-02-15T04:15:39;101973.03;;;9.28;97.68
79457;BME280;69494;43.654;3.884;2024-02-15T04:18:06;101983.31;;;9.24;96.68
79457;BME280;69494;43.654;3.884;2024-02-15T04:20:33;101966.91;;;9.23;97.05
79457;BME280;69494;43.654;3.884;2024-02-15T04:22:59;101959.97;;;9.22;97.04
79457;BME280;69494;43.654;3.884;2024-02-15T04:25:25;101956.56;;;9.25;97.45
79457;BME280;69494;43.654;3.884;2024-02-15T04:27:53;101949.69;;;9.30;97.39
79457;BME280;69494;43.654;3.884;2024-02-15T04:30:18;101954.91;;;9.33;97.20
79457;BME280;69494;43.654;3.884;2024-02-15T04:32:45;101966.19;;;9.37;97.26
79457;BME280;69494;43.654;3.884;2024-02-15T04:35:12;101965.31;;;9.34;97.17
79457;BME280;69494;43.654;3.884;2024-02-15T04:37:37;101958.47;;;9.41;97.36
79457;BME280;69494;43.654;3.884;2024-02-15T04:40:04;101955.91;;;9.43;97.76
79457;BME280;69494;43.654;3.884;2024-02-15T04:42:36;101955.00;;;9.42;97.21
79457;BME280;69494;43.654;3.884;2024-02-15T04:45:08;101955.09;;;9.47;97.54
79457;BME280;69494;43.654;3.884;2024-02-15T04:47:35;101958.59;;;9.52;97.44
79457;BME280;69494;43.654;3.884;2024-02-15T04:50:00;101958.59;;;9.52;97.10
79457;BME280;69494;43.654;3.884;2024-02-15T04:52:26;101945.56;;;9.47;97.25
79457;BME280;69494;43.654;3.884;2024-02-15T04:54:51;101952.50;;;9.48;97.19
79457;BME280;69494;43.654;3.884;2024-02-15T04:57:19;101953.41;;;9.50;96.80
79457;BME280;69494;43.654;3.884;2024-02-15T04:59:44;101952.59;;;9.56;96.83
79457;BME280;69494;43.654;3.884;2024-02-15T05:02:12;101952.59;;;9.58;96.82
79457;BME280;69494;43.654;3.884;2024-02-15T05:04:38;101955.19;;;9.56;96.45
79457;BME280;69494;43.654;3.884;2024-02-15T05:07:03;101940.47;;;9.53;96.46
79457;BME280;69494;43.654;3.884;2024-02-15T05:09:29;101944.75;;;9.53;96.47
79457;BME280;69494;43.654;3.884;2024-02-15T05:11:56;101942.19;;;9.51;96.45
79457;BME280;69494;43.654;3.884;2024-02-15T05:14:22;101943.91;;;9.54;96.58
79457;BME280;69494;43.654;3.884;2024-02-15T05:16:49;101940.47;;;9.53;96.63
79457;BME280;69494;43.654;3.884;2024-02-15T05:19:15;101943.94;;;9.56;96.19
79457;BME280;69494;43.654;3.884;2024-02-15T05:21:41;101942.19;;;9.54;95.99
79457;BME280;69494;43.654;3.884;2024-02-15T05:24:11;101943.88;;;9.51;96.00
79457;BME280;69494;43.654;3.884;2024-02-15T05:26:36;101945.56;;;9.47;95.86
79457;BME280;69494;43.654;3.884;2024-02-15T05:29:01;101940.38;;;9.47;96.11
79457;BME280;69494;43.654;3.884;2024-02-15T05:31:27;101942.13;;;9.47;95.88
79457;BME280;69494;43.654;3.884;2024-02-15T05:33:53;101942.13;;;9.48;96.08
79457;BME280;69494;43.654;3.884;2024-02-15T05:36:20;101941.25;;;9.46;95.57
79457;BME280;69494;43.654;3.884;2024-02-15T05:38:52;101936.84;;;9.42;95.41
79457;BME280;69494;43.654;3.884;2024-02-15T05:41:19;101945.53;;;9.44;95.23
79457;BME280;69494;43.654;3.884;2024-02-15T05:43:45;101950.72;;;9.44;95.27
79457;BME280;69494;43.654;3.884;2024-02-15T05:46:11;101953.31;;;9.44;95.02
79457;BME280;69494;43.654;3.884;2024-02-15T05:48:38;101947.28;;;9.45;95.10
79457;BME280;69494;43.654;3.884;2024-02-15T05:51:05;101949.88;;;9.45;94.83
79457;BME280;69494;43.654;3.884;2024-02-15T05:53:31;101947.25;;;9.44;94.96
79457;BME280;69494;43.654;3.884;2024-02-15T05:56:02;101947.28;;;9.45;94.68
79457;BME280;69494;43.654;3.884;2024-02-15T05:58:30;101945.53;;;9.44;94.47
79457;BME280;69494;43.654;3.884;2024-02-15T06:00:55;101939.50;;;9.45;94.29
79457;BME280;69494;43.654;3.884;2024-02-15T06:03:26;101945.53;;;9.44;93.93
79457;BME280;69494;43.654;3.884;2024-02-15T06:05:52;101942.03;;;9.42;93.74
79457;BME280;69494;43.654;3.884;2024-02-15T06:08:23;101938.56;;;9.40;93.85
79457;BME280;69494;43.654;3.884;2024-02-15T06:10:48;101936.03;;;9.43;93.47
79457;BME280;69494;43.654;3.884;2024-02-15T06:13:13;101933.44;;;9.43;93.52
79457;BME280;69494;43.654;3.884;2024-02-15T06:15:39;101940.34;;;9.43;93.30
79457;BME280;69494;43.654;3.884;2024-02-15T06:18:04;101933.44;;;9.43;93.70
79457;BME280;69494;43.654;3.884;2024-02-15T06:20:34;101933.44;;;9.43;93.22
79457;BME280;69494;43.654;3.884;2024-02-15T06:23:00;101930.84;;;9.45;92.93
79457;BME280;69494;43.654;3.884;2024-02-15T06:25:27;101931.75;;;9.48;92.42
79457;BME280;69494;43.654;3.884;2024-02-15T06:27:52;101929.16;;;9.47;92.65
79457;BME280;69494;43.654;3.884;2024-02-15T06:30:23;101928.31;;;9.48;92.18
79457;BME280;69494;43.654;3.884;2024-02-15T06:33:07;101928.28;;;9.49;92.08
79457;BME280;69494;43.654;3.884;2024-02-15T06:36:06;101918.81;;;9.50;91.81
79457;BME280;69494;43.654;3.884;2024-02-15T06:38:50;101920.59;;;9.56;91.37
79457;BME280;69494;43.654;3.884;2024-02-15T06:41:44;101913.69;;;9.56;91.08
79457;BME280;69494;43.654;3.884;2024-02-15T06:44:10;101912.00;;;9.60;90.60
79457;BME280;69494;43.654;3.884;2024-02-15T06:46:35;101905.09;;;9.63;90.02
79457;BME280;69494;43.654;3.884;2024-02-15T06:49:01;101900.81;;;9.65;89.59
79457;BME280;69494;43.654;3.884;2024-02-15T06:51:26;101886.09;;;9.64;89.78
79457;BME280;69494;43.654;3.884;2024-02-15T06:53:51;101892.13;;;9.63;89.57
79457;BME280;69494;43.654;3.884;2024-02-15T06:56:21;101895.59;;;9.62;90.00
79457;BME280;69494;43.654;3.884;2024-02-15T06:58:46;101894.75;;;9.65;89.97
79457;BME280;69494;43.654;3.884;2024-02-15T07:01:13;101904.28;;;9.66;89.90
79457;BME280;69494;43.654;3.884;2024-02-15T07:03:41;101917.25;;;9.66;89.79
79457;BME280;69494;43.654;3.884;2024-02-15T07:06:07;101932.00;;;9.70;89.80
79457;BME280;69494;43.654;3.884;2024-02-15T07:08:32;101932.84;;;9.70;90.07
79457;BME280;69494;43.654;3.884;2024-02-15T07:10:58;101917.31;;;9.72;89.77
79457;BME280;69494;43.654;3.884;2024-02-15T07:13:23;101933.78;;;9.77;89.64
79457;BME280;69494;43.654;3.884;2024-02-15T07:15:51;101922.59;;;9.81;89.75
79457;BME280;69494;43.654;3.884;2024-02-15T07:18:17;101930.41;;;9.84;89.46
79457;BME280;69494;43.654;3.884;2024-02-15T07:20:47;101936.47;;;9.86;89.21
79457;BME280;69494;43.654;3.884;2024-02-15T07:23:12;101933.91;;;9.88;89.17
79457;BME280;69494;43.654;3.884;2024-02-15T07:25:38;101935.63;;;9.87;89.06
79457;BME280;69494;43.654;3.884;2024-02-15T07:28:04;101938.22;;;9.90;89.14
79457;BME280;69494;43.654;3.884;2024-02-15T07:30:30;101937.41;;;9.91;89.48
79457;BME280;69494;43.654;3.884;2024-02-15T07:32:56;101935.66;;;9.92;89.10
79457;BME280;69494;43.654;3.884;2024-02-15T07:35:22;101932.25;;;9.95;88.77
79457;BME280;69494;43.654;3.884;2024-02-15T07:37:54;101928.81;;;9.99;88.49
79457;BME280;69494;43.654;3.884;2024-02-15T07:40:24;101944.44;;;10.03;88.65
79457;BME280;69494;43.654;3.884;2024-02-15T07:42:53;101925.38;;;10.03;88.29
79457;BME280;69494;43.654;3.884;2024-02-15T07:45:18;101932.34;;;10.07;88.72
79457;BME280;69494;43.654;3.884;2024-02-15T07:47:43;101935.81;;;10.07;88.44
79457;BME280;69494;43.654;3.884;2024-02-15T07:50:10;101934.94;;;10.08;88.07
79457;BME280;69494;43.654;3.884;2024-02-15T07:52:35;101935.84;;;10.10;87.72
79457;BME280;69494;43.654;3.884;2024-02-15T07:55:01;101930.72;;;10.18;87.68
79457;BME280;69494;43.654;3.884;2024-02-15T07:57:34;101918.59;;;10.19;87.21
79457;BME280;69494;43.654;3.884;2024-02-15T07:59:59;101922.94;;;10.20;87.31
79457;BME280;69494;43.654;3.884;2024-02-15T08:02:25;101935.06;;;10.21;86.85
79457;BME280;69494;43.654;3.884;2024-02-15T08:04:53;101944.63;;;10.25;86.50
79457;BME280;69494;43.654;3.884;2024-02-15T08:07:19;101949.81;;;10.26;86.40
79457;BME280;69494;43.654;3.884;2024-02-15T08:09:46;101956.72;;;10.26;86.52
79457;BME280;69494;43.654;3.884;2024-02-15T08:12:12;101956.72;;;10.26;86.33
79457;BME280;69494;43.654;3.884;2024-02-15T08:14:37;101951.56;;;10.27;86.44
79457;BME280;69494;43.654;3.884;2024-02-15T08:17:05;101954.19;;;10.30;86.11
79457;BME280;69494;43.654;3.884;2024-02-15T08:19:33;101968.09;;;10.37;86.22
79457;BME280;69494;43.654;3.884;2024-02-15T08:22:05;101960.34;;;10.40;85.51
79457;BME280;69494;43.654;3.884;2024-02-15T08:24:31;101947.38;;;10.43;85.16
79457;BME280;69494;43.654;3.884;2024-02-15T08:26:56;101938.75;;;10.47;84.44
79457;BME280;69494;43.654;3.884;2024-02-15T08:29:24;101933.63;;;10.54;84.50
79457;BME280;69494;43.654;3.884;2024-02-15T08:31:49;101936.28;;;10.63;84.71
79457;BME280;69494;43.654;3.884;2024-02-15T08:34:15;101935.44;;;10.68;83.85
79457;BME280;69494;43.654;3.884;2024-02-15T08:36:40;101928.53;;;10.72;83.65
79457;BME280;69494;43.654;3.884;2024-02-15T08:39:06;101937.22;;;10.77;82.91
79457;BME280;69494;43.654;3.884;2024-02-15T08:41:33;101943.34;;;10.84;82.85
79457;BME280;69494;43.654;3.884;2024-02-15T08:43:59;101944.22;;;10.89;81.94
79457;BME280;69494;43.654;3.884;2024-02-15T08:46:26;101956.38;;;10.92;81.78
79457;BME280;69494;43.654;3.884;2024-02-15T08:48:52;101947.72;;;10.96;81.69
79457;BME280;69494;43.654;3.884;2024-02-15T08:51:18;101939.13;;;11.06;80.95
79457;BME280;69494;43.654;3.884;2024-02-15T08:53:45;101944.41;;;11.28;80.48
79457;BME280;69494;43.654;3.884;2024-02-15T08:56:11;101946.19;;;11.44;79.82
79457;BME280;69494;43.654;3.884;2024-02-15T08:58:36;101935.81;;;11.49;79.42
79457;BME280;69494;43.654;3.884;2024-02-15T09:01:03;101928.88;;;11.51;79.10
79457;BME280;69494;43.654;3.884;2024-02-15T09:03:29;101930.66;;;11.59;78.91
79457;BME280;69494;43.654;3.884;2024-02-15T09:05:55;101921.97;;;11.60;78.49
79457;BME280;69494;43.654;3.884;2024-02-15T09:08:20;101926.34;;;11.66;78.73
79457;BME280;69494;43.654;3.884;2024-02-15T09:10:54;101920.25;;;11.70;78.66
79457;BME280;69494;43.654;3.884;2024-02-15T09:13:20;101922.88;;;11.70;78.53
79457;BME280;69494;43.654;3.884;2024-02-15T09:15:45;101922.00;;;11.74;78.58
79457;BME280;69494;43.654;3.884;2024-02-15T09:18:12;101927.19;;;11.74;78.46
79457;BME280;69494;43.654;3.884;2024-02-15T09:20:38;101921.13;;;11.64;78.13
79457;BME280;69494;43.654;3.884;2024-02-15T09:23:09;101921.97;;;11.62;78.49
79457;BME280;69494;43.654;3.884;2024-02-15T09:25:40;101921.13;;;11.66;78.78
79457;BME280;69494;43.654;3.884;2024-02-15T09:28:08;101919.38;;;11.67;78.56
79457;BME280;69494;43.654;3.884;2024-02-15T09:30:33;101931.50;;;11.68;78.52
79457;BME280;69494;43.654;3.884;2024-02-15T09:33:01;101928.94;;;11.64;79.05
79457;BME280;69494;43.654;3.884;2024-02-15T09:35:28;101937.63;;;11.70;79.23
79457;BME280;69494;43.654;3.884;2024-02-15T09:37:55;101920.25;;;11.72;79.13
79457;BME280;69494;43.654;3.884;2024-02-15T09:40:21;101933.28;;;11.70;79.28
79457;BME280;69494;43.654;3.884;2024-02-15T09:42:49;101930.66;;;11.67;79.48
79457;BME280;69494;43.654;3.884;2024-02-15T09:45:16;101925.44;;;11.61;79.30
79457;BME280;69494;43.654;3.884;2024-02-15T09:47:43;101921.97;;;11.57;79.76
79457;BME280;69494;43.654;3.884;2024-02-15T09:50:13;101921.09;;;11.58;79.75
79457;BME280;69494;43.654;3.884;2024-02-15T09:52:40;101925.44;;;11.59;79.95
79457;BME280;69494;43.654;3.884;2024-02-15T09:55:09;101932.38;;;11.62;79.71
79457;BME280;69494;43.654;3.884;2024-02-15T09:57:39;101930.66;;;11.62;79.80
79457;BME280;69494;43.654;3.884;2024-02-15T10:00:05;101921.97;;;11.65;79.79
79457;BME280;69494;43.654;3.884;2024-02-15T10:02:34;101922.84;;;11.67;79.87
79457;BME280;69494;43.654;3.884;2024-02-15T10:05:01;101913.31;;;11.69;80.13
79457;BME280;69494;43.654;3.884;2024-02-15T10:07:27;101923.69;;;11.68;79.77
79457;BME280;69494;43.654;3.884;2024-02-15T10:09:53;101915.94;;;11.66;79.95
79457;BME280;69494;43.654;3.884;2024-02-15T10:12:18;101912.44;;;11.62;80.43
79457;BME280;69494;43.654;3.884;2024-02-15T10:14:52;101905.50;;;11.68;80.89
79457;BME280;69494;43.654;3.884;2024-02-15T10:17:20;101903.78;;;11.74;80.34
79457;BME280;69494;43.654;3.884;2024-02-15T10:20:05;101899.44;;;11.79;80.07
79457;BME280;69494;43.654;3.884;2024-02-15T10:22:31;101904.66;;;11.78;80.40
79457;BME280;69494;43.654;3.884;2024-02-15T10:25:12;101902.91;;;11.81;80.76
79457;BME280;69494;43.654;3.884;2024-02-15T10:27:41;101910.75;;;11.86;81.34
79457;BME280;69494;43.654;3.884;2024-02-15T10:30:19;101900.34;;;11.88;81.65
79457;BME280;69494;43.654;3.884;2024-02-15T10:32:46;101909.91;;;11.90;81.26
79457;BME280;69494;43.654;3.884;2024-02-15T10:35:21;101906.44;;;12.05;81.19
79457;BME280;69494;43.654;3.884;2024-02-15T10:37:48;101902.94;;;12.12;80.32
79457;BME280;69494;43.654;3.884;2024-02-15T10:40:17;101902.97;;;12.18;80.31
79457;BME280;69494;43.654;3.884;2024-02-15T10:42:46;101895.13;;;12.25;79.98
79457;BME280;69494;43.654;3.884;2024-02-15T10:45:12;101902.97;;;12.26;80.74
79457;BME280;69494;43.654;3.884;2024-02-15T10:47:39;101909.06;;;12.24;80.89
79457;BME280;69494;43.654;3.884;2024-02-15T10:50:06;101906.44;;;12.25;80.97
79457;BME280;69494;43.654;3.884;2024-02-15T10:52:32;101905.53;;;12.34;80.95
79457;BME280;69494;43.654;3.884;2024-02-15T10:55:05;101910.75;;;12.37;81.03
79457;BME280;69494;43.654;3.884;2024-02-15T10:57:37;101917.69;;;12.43;81.03
79457;BME280;69494;43.654;3.884;2024-02-15T11:00:05;101915.13;;;12.38;81.52
79457;BME280;69494;43.654;3.884;2024-02-15T11:02:48;101905.56;;;12.38;81.90
79457;BME280;69494;43.654;3.884;2024-02-15T11:05:18;101890.81;;;12.34;82.14
79457;BME280;69494;43.654;3.884;2024-02-15T11:07:48;101893.38;;;12.37;82.11
79457;BME280;69494;43.654;3.884;2024-02-15T11:10:14;101899.47;;;12.47;81.71
79457;BME280;69494;43.654;3.884;2024-02-15T11:12:42;101896.84;;;12.55;81.74
79457;BME280;69494;43.654;3.884;2024-02-15T11:15:09;101898.56;;;12.64;81.57
79457;BME280;69494;43.654;3.884;2024-02-15T11:20:03;101900.31;;;12.66;81.67
79457;BME280;69494;43.654;3.884;2024-02-15T11:22:34;101895.09;;;12.66;81.82
79457;BME280;69494;43.654;3.884;2024-02-15T11:25:02;101884.63;;;12.69;82.15
79457;BME280;69494;43.654;3.884;2024-02-15T11:27:30;101891.59;;;12.69;82.25
79457;BME280;69494;43.654;3.884;2024-02-15T11:29:58;101882.91;;;12.70;82.47
79457;BME280;69494;43.654;3.884;2024-02-15T11:32:45;101878.59;;;12.63;83.04
79457;BME280;69494;43.654;3.884;2024-02-15T11:35:25;101881.19;;;12.55;83.35
79457;BME280;69494;43.654;3.884;2024-02-15T11:37:52;101877.72;;;12.48;84.02
79457;BME280;69494;43.654;3.884;2024-02-15T11:43:00;101874.25;;;12.46;84.51
79457;BME280;69494;43.654;3.884;2024-02-15T11:45:29;101875.97;;;12.52;84.47
79457;BME280;69494;43.654;3.884;2024-02-15T11:47:58;101860.34;;;12.52;85.02
79457;BME280;69494;43.654;3.884;2024-02-15T11:50:27;101865.56;;;12.52;84.91
79457;BME280;69494;43.654;3.884;2024-02-15T11:53:02;101849.06;;;12.54;84.92
79457;BME280;69494;43.654;3.884;2024-02-15T11:55:31;101849.06;;;12.56;84.96
79457;BME280;69494;43.654;3.884;2024-02-15T11:57:59;101847.31;;;12.56;85.16
79457;BME280;69494;43.654;3.884;2024-02-15T12:00:48;101847.31;;;12.53;85.34
79457;BME280;69494;43.654;3.884;2024-02-15T12:03:32;101839.50;;;12.55;85.77
79457;BME280;69494;43.654;3.884;2024-02-15T12:06:19;101843.84;;;12.56;86.17
79457;BME280;69494;43.654;3.884;2024-02-15T12:09:03;101835.16;;;12.57;87.00
79457;BME280;69494;43.654;3.884;2024-02-15T12:11:47;101836.91;;;12.59;87.11
79457;BME280;69494;43.654;3.884;2024-02-15T12:14:31;101829.03;;;12.66;87.12
79457;BME280;69494;43.654;3.884;2024-02-15T12:17:15;101822.06;;;12.71;87.37
79457;BME280;69494;43.654;3.884;2024-02-15T12:20:03;101814.25;;;12.71;87.20
79457;BME280;69494;43.654;3.884;2024-02-15T12:22:40;101809.03;;;12.77;87.48
79457;BME280;69494;43.654;3.884;2024-02-15T12:25:07;101811.59;;;12.83;88.07
79457;BME280;69494;43.654;3.884;2024-02-15T12:27:40;101803.78;;;12.85;87.95
79457;BME280;69494;43.654;3.884;2024-02-15T12:30:06;101808.09;;;12.86;88.30
79457;BME280;69494;43.654;3.884;2024-02-15T12:32:34;101793.28;;;12.92;88.34
79457;BME280;69494;43.654;3.884;2024-02-15T12:35:13;101787.19;;;12.98;87.80
79457;BME280;69494;43.654;3.884;2024-02-15T12:37:46;101788.00;;;13.06;87.45
79457;BME280;69494;43.654;3.884;2024-02-15T12:40:16;101787.13;;;13.07;87.26
79457;BME280;69494;43.654;3.884;2024-02-15T12:42:46;101781.03;;;13.10;86.82
79457;BME280;69494;43.654;3.884;2024-02-15T12:45:18;101780.97;;;13.16;86.70
79457;BME280;69494;43.654;3.884;2024-02-15T12:47:47;101780.13;;;13.14;86.88
79457;BME280;69494;43.654;3.884;2024-02-15T12:50:14;101787.09;;;13.18;86.74
79457;BME280;69494;43.654;3.884;2024-02-15T12:52:39;101785.28;;;13.23;86.59
79457;BME280;69494;43.654;3.884;2024-02-15T12:55:12;101779.19;;;13.27;86.32
79457;BME280;69494;43.654;3.884;2024-02-15T12:57:40;101776.56;;;13.27;86.20
79457;BME280;69494;43.654;3.884;2024-02-15T13:00:08;101777.44;;;13.28;86.36
79457;BME280;69494;43.654;3.884;2024-02-15T13:02:38;101780.91;;;13.30;86.37
79457;BME280;69494;43.654;3.884;2024-02-15T13:05:05;101783.53;;;13.34;86.28